Time;durP1;ratioP1;P1;durP2;ratioP2;P2;SDS_P1;SDS_P2;PMS_P1;PMS_P2;Temp;Humidity;BMP_temperature;BMP_pressure;BME280_temperature;BME280_humidity;BME280_pressure;Samples;Min_cycle;Max_cycle;Signal;HPM_P1;HPM_P2
2022/12/21 00:01:24;;;;;;;36.28;26.15;;;10.40;99.90;;;;;;5031144;28;20366;-65
2022/12/21 00:03:55;;;;;;;34.28;22.15;;;10.50;99.90;;;;;;5030161;28;20045;-65
2022/12/21 00:06:21;;;;;;;31.70;21.50;;;10.40;99.90;;;;;;5030030;28;20022;-66
2022/12/21 00:08:49;;;;;;;31.27;20.60;;;10.40;99.90;;;;;;5030337;28;20025;-65
2022/12/21 00:11:15;;;;;;;28.55;19.67;;;10.40;99.90;;;;;;5031138;28;20033;-65
2022/12/21 00:13:42;;;;;;;32.28;21.77;;;10.40;99.90;;;;;;5027377;28;20029;-65
2022/12/21 00:16:10;;;;;;;28.95;20.33;;;10.40;99.90;;;;;;5029187;28;20048;-65
2022/12/21 00:18:37;;;;;;;30.17;20.70;;;10.30;99.90;;;;;;5029737;28;20504;-65
2022/12/21 00:21:10;;;;;;;34.70;22.27;;;10.30;99.90;;;;;;5031067;28;20112;-66
2022/12/21 00:23:36;;;;;;;34.05;22.48;;;10.30;99.90;;;;;;5026719;28;20018;-65
2022/12/21 00:26:03;;;;;;;31.38;22.10;;;10.30;99.90;;;;;;5031242;28;20108;-66
2022/12/21 00:28:29;;;;;;;31.02;22.27;;;10.30;99.90;;;;;;5029203;28;20453;-65
2022/12/21 00:30:55;;;;;;;37.00;24.40;;;10.30;99.90;;;;;;5029949;28;20060;-65
2022/12/21 00:33:21;;;;;;;33.75;22.45;;;10.30;99.90;;;;;;5028625;28;20056;-65
2022/12/21 00:35:47;;;;;;;32.88;22.08;;;10.30;99.90;;;;;;5029758;28;20481;-65
2022/12/21 00:38:13;;;;;;;29.77;20.15;;;10.30;99.90;;;;;;5028830;28;20022;-65
2022/12/21 00:40:39;;;;;;;28.48;20.27;;;10.30;99.90;;;;;;5028982;28;20080;-66
2022/12/21 00:43:04;;;;;;;31.58;21.27;;;10.30;99.90;;;;;;5023218;28;20147;-65
2022/12/21 00:45:30;;;;;;;29.13;20.00;;;10.30;99.90;;;;;;5030465;28;20021;-66
2022/12/21 00:47:55;;;;;;;36.45;24.35;;;10.20;99.90;;;;;;5027927;28;20381;-65
2022/12/21 00:50:21;;;;;;;37.75;24.35;;;10.20;99.90;;;;;;5028873;28;20033;-65
2022/12/21 00:52:46;;;;;;;31.88;21.63;;;10.10;99.90;;;;;;5028472;28;20362;-65
2022/12/21 00:55:12;;;;;;;34.13;21.20;;;10.10;99.90;;;;;;5029455;28;20510;-65
2022/12/21 00:57:37;;;;;;;38.10;24.38;;;10.10;99.90;;;;;;5027081;28;20036;-65
2022/12/21 01:00:03;;;;;;;36.45;23.45;;;10.10;99.90;;;;;;5028747;28;20014;-65
2022/12/21 01:02:29;;;;;;;32.20;21.50;;;10.00;99.90;;;;;;5030209;28;20100;-65
2022/12/21 01:04:55;;;;;;;33.50;22.20;;;10.00;99.90;;;;;;5028135;28;20124;-65
2022/12/21 01:07:20;;;;;;;29.60;20.80;;;10.10;99.90;;;;;;5027766;28;20108;-65
2022/12/21 01:09:46;;;;;;;32.78;22.10;;;10.10;99.90;;;;;;5029280;28;20022;-65
2022/12/21 01:12:11;;;;;;;30.83;20.95;;;10.10;99.90;;;;;;5028617;28;20029;-65
2022/12/21 01:14:37;;;;;;;30.10;20.27;;;10.10;99.90;;;;;;5028396;28;20480;-65
2022/12/21 01:17:02;;;;;;;30.52;20.75;;;10.10;99.90;;;;;;5029681;28;20029;-65
2022/12/21 01:19:28;;;;;;;33.35;20.95;;;10.10;99.90;;;;;;5029096;28;20430;-65
2022/12/21 01:21:54;;;;;;;48.97;31.27;;;10.10;99.90;;;;;;5025932;28;20065;-65
2022/12/21 01:24:19;;;;;;;49.47;31.73;;;9.90;99.90;;;;;;5030453;28;20014;-65
2022/12/21 01:26:45;;;;;;;47.05;30.08;;;9.90;99.90;;;;;;5028185;28;20032;-65
2022/12/21 01:29:13;;;;;;;46.08;29.38;;;9.70;99.90;;;;;;5029124;28;20051;-65
2022/12/21 01:31:39;;;;;;;40.63;27.25;;;9.60;99.90;;;;;;5025806;28;20036;-65
2022/12/21 01:34:04;;;;;;;35.83;25.38;;;9.60;99.90;;;;;;5030254;28;20029;-65
2022/12/21 01:36:30;;;;;;;35.53;24.35;;;9.60;99.90;;;;;;5028175;28;20411;-65
2022/12/21 01:38:55;;;;;;;33.70;22.50;;;9.60;99.90;;;;;;5028970;28;20022;-65
2022/12/21 01:41:24;;;;;;;30.50;20.45;;;9.60;99.90;;;;;;5026782;28;20500;-65
2022/12/21 01:44:01;;;;;;;32.70;22.73;;;9.60;99.90;;;;;;5028983;28;20639;-66
2022/12/21 01:46:38;;;;;;;32.85;22.85;;;9.60;99.90;;;;;;5026819;28;20421;-65
2022/12/21 01:49:12;;;;;;;37.50;24.45;;;9.60;99.90;;;;;;5026606;28;20028;-65
2022/12/21 01:51:39;;;;;;;33.00;22.85;;;9.60;99.90;;;;;;5028255;28;20076;-65
2022/12/21 01:54:20;;;;;;;32.83;21.27;;;9.60;99.90;;;;;;5028710;28;20021;-65
2022/12/21 01:56:49;;;;;;;28.67;19.65;;;9.70;99.90;;;;;;5026558;28;20022;-65
2022/12/21 01:59:37;;;;;;;32.92;22.50;;;9.70;99.90;;;;;;5027877;28;20022;-65
2022/12/21 02:02:08;;;;;;;28.23;19.27;;;9.70;99.90;;;;;;5026477;28;20030;-65
2022/12/21 02:04:34;;;;;;;44.00;27.00;;;9.70;99.90;;;;;;5029353;28;20060;-65
2022/12/21 02:07:00;;;;;;;47.33;32.05;;;9.70;99.90;;;;;;5027170;28;20483;-65
2022/12/21 02:09:30;;;;;;;49.65;32.42;;;9.60;99.90;;;;;;5028067;28;20025;-65
2022/12/21 02:11:57;;;;;;;45.92;30.10;;;9.60;99.90;;;;;;5025939;28;20036;-65
2022/12/21 02:14:23;;;;;;;39.58;26.55;;;9.50;99.90;;;;;;5026989;28;20034;-65
2022/12/21 02:17:03;;;;;;;43.35;28.90;;;9.50;99.90;;;;;;5028157;28;20569;-65
2022/12/21 02:19:50;;;;;;;43.38;29.42;;;9.50;99.90;;;;;;5025738;28;20473;-65
2022/12/21 02:22:32;;;;;;;47.58;31.30;;;9.50;99.90;;;;;;5028543;28;20021;-65
2022/12/21 02:25:10;;;;;;;46.13;29.02;;;9.40;99.90;;;;;;5028879;28;20028;-66
2022/12/21 02:28:03;;;;;;;43.83;27.27;;;9.40;99.90;;;;;;5026034;28;20424;-65
2022/12/21 02:31:08;;;;;;;46.58;29.17;;;9.30;99.90;;;;;;5027044;28;20017;-65
2022/12/21 02:33:39;;;;;;;37.67;25.50;;;9.30;99.90;;;;;;5025558;28;20039;-65
2022/12/21 02:36:35;;;;;;;43.78;26.83;;;9.30;99.90;;;;;;5027873;28;20046;-65
2022/12/21 02:39:16;;;;;;;45.20;27.48;;;9.30;99.90;;;;;;5028431;28;20104;-65
2022/12/21 02:41:54;;;;;;;45.92;29.17;;;9.20;99.90;;;;;;5027331;28;20044;-65
2022/12/21 02:44:42;;;;;;;51.60;29.92;;;9.30;99.90;;;;;;5029866;28;20018;-65
2022/12/21 02:47:32;;;;;;;45.85;28.95;;;9.20;99.90;;;;;;5026743;28;20022;-65
2022/12/21 02:50:01;;;;;;;;;;;9.20;99.90;;;;;;5027600;28;20025;-65
2022/12/21 02:52:41;;;;;;;47.88;28.45;;;9.10;99.90;;;;;;5028420;28;19912;-65
2022/12/21 02:55:10;;;;;;;42.22;26.73;;;9.10;99.90;;;;;;5026143;28;20018;-65
2022/12/21 02:57:38;;;;;;;46.20;27.02;;;9.10;99.90;;;;;;5025998;28;20537;-65
2022/12/21 03:00:12;;;;;;;48.83;29.35;;;9.10;99.90;;;;;;5026300;28;20056;-65
2022/12/21 03:02:44;;;;;;;51.25;29.00;;;9.10;99.90;;;;;;5027668;28;20043;-65
2022/12/21 03:05:40;;;;;;;49.20;30.30;;;9.10;99.90;;;;;;5026043;28;20027;-65
2022/12/21 03:08:50;;;;;;;51.83;30.27;;;9.10;99.90;;;;;;5028289;28;20052;-65
2022/12/21 03:11:15;;;;;;;49.55;30.63;;;9.10;99.90;;;;;;4990233;28;20038;-65
2022/12/21 03:13:59;;;;;;;47.10;28.80;;;9.00;99.90;;;;;;5022057;28;20094;-65
2022/12/21 03:16:46;;;;;;;48.63;30.70;;;9.00;99.90;;;;;;5032063;28;20473;-65
2022/12/21 03:19:24;;;;;;;50.25;30.45;;;9.00;99.90;;;;;;5029713;28;20060;-65
2022/12/21 03:21:58;;;;;;;52.05;29.88;;;9.00;99.90;;;;;;5029355;28;20044;-65
2022/12/21 03:24:28;;;;;;;51.95;31.55;;;9.00;99.90;;;;;;5032971;28;21534;-65
2022/12/21 03:27:01;;;;;;;52.55;30.15;;;9.00;99.90;;;;;;5032138;28;20075;-65
2022/12/21 03:29:33;;;;;;;46.90;28.98;;;9.00;99.90;;;;;;5031229;28;20018;-65
2022/12/21 03:32:05;;;;;;;53.90;30.40;;;9.00;99.90;;;;;;5028860;28;20039;-65
2022/12/21 03:34:35;;;;;;;51.83;31.25;;;9.00;99.90;;;;;;5031207;28;20029;-65
2022/12/21 03:37:07;;;;;;;;;;;9.00;99.90;;;;;;5031773;28;20064;-65
2022/12/21 03:39:36;;;;;;;46.78;27.90;;;9.00;99.90;;;;;;5028644;28;19916;-65
2022/12/21 03:42:25;;;;;;;50.25;30.00;;;8.90;99.90;;;;;;5032335;28;20244;-65
2022/12/21 03:44:56;;;;;;;39.38;24.40;;;9.00;99.90;;;;;;5033727;28;20500;-65
2022/12/21 03:47:31;;;;;;;46.92;28.42;;;9.00;99.90;;;;;;5030415;28;20110;-65
2022/12/21 03:50:00;;;;;;;42.55;25.17;;;9.00;99.90;;;;;;5029015;28;20010;-65
2022/12/21 03:52:34;;;;;;;38.47;23.45;;;9.00;99.90;;;;;;5030999;28;20033;-65
2022/12/21 03:55:04;;;;;;;31.60;20.90;;;9.00;99.90;;;;;;5028600;28;20034;-65
2022/12/21 03:57:52;;;;;;;32.60;20.02;;;9.00;99.90;;;;;;5029722;28;20025;-66
2022/12/21 04:00:17;;;;;;;37.80;23.65;;;9.10;99.90;;;;;;5031352;28;20500;-65
2022/12/21 04:03:09;;;;;;;47.17;27.35;;;9.10;99.90;;;;;;5030451;28;20029;-65
2022/12/21 04:06:20;;;;;;;50.22;29.88;;;9.10;99.90;;;;;;5028081;28;20477;-65
2022/12/21 04:08:47;;;;;;;50.13;29.95;;;9.10;99.90;;;;;;5011831;28;20034;-65
2022/12/21 04:13:59;;;;;;;50.35;30.58;;;8.90;99.90;;;;;;5030243;28;20028;-65
2022/12/21 04:16:24;;;;;;;51.33;30.45;;;8.90;99.90;;;;;;5029417;28;20374;-65
2022/12/21 04:21:34;;;;;;;52.60;31.90;;;8.80;99.90;;;;;;5030330;28;20063;-65
2022/12/21 04:29:28;;;;;;;45.00;28.52;;;8.90;99.90;;;;;;5031259;28;20163;-65
2022/12/21 04:31:53;;;;;;;45.65;27.38;;;8.90;99.90;;;;;;5028898;28;20552;-65
2022/12/21 04:34:19;;;;;;;41.42;26.73;;;8.90;99.90;;;;;;5029922;28;20203;-65
2022/12/21 04:39:28;;;;;;;53.35;29.92;;;9.00;99.90;;;;;;5029898;28;20082;-65
2022/12/21 04:41:54;;;;;;;52.00;30.65;;;9.00;99.90;;;;;;5029477;28;20136;-65
2022/12/21 04:44:20;;;;;;;53.83;31.05;;;9.00;99.90;;;;;;5027696;28;20405;-66
2022/12/21 04:46:45;;;;;;;56.60;32.92;;;9.00;99.90;;;;;;5030490;28;20112;-65
2022/12/21 04:49:13;;;;;;;61.15;36.83;;;9.00;99.90;;;;;;5028691;28;20021;-65
2022/12/21 04:51:39;;;;;;;54.80;34.45;;;9.00;99.90;;;;;;5028866;28;20022;-66
2022/12/21 04:54:04;;;;;;;56.60;34.35;;;9.00;99.90;;;;;;5029624;28;20033;-65
2022/12/21 04:56:30;;;;;;;60.58;35.22;;;9.00;99.90;;;;;;5010862;28;20056;-66
2022/12/21 04:58:55;;;;;;;57.58;33.35;;;9.00;99.90;;;;;;5030694;28;20029;-65
2022/12/21 05:01:22;;;;;;;57.30;32.60;;;9.00;99.90;;;;;;5029299;28;20022;-65
2022/12/21 05:03:48;;;;;;;51.67;32.65;;;9.00;99.90;;;;;;5029612;28;20053;-65
2022/12/21 05:06:17;;;;;;;55.10;32.67;;;9.00;99.90;;;;;;5025814;28;20085;-65
2022/12/21 05:08:43;;;;;;;53.75;32.17;;;9.10;99.90;;;;;;5030745;28;20026;-65
2022/12/21 05:14:00;;;;;;;61.95;34.40;;;9.00;99.90;;;;;;5029675;28;20124;-65
2022/12/21 05:16:28;;;;;;;54.53;33.92;;;9.00;99.90;;;;;;5027977;28;20453;-65
2022/12/21 05:18:53;;;;;;;57.85;33.97;;;9.00;99.90;;;;;;5028490;28;20405;-65
2022/12/21 05:21:19;;;;;;;60.42;35.28;;;9.00;99.90;;;;;;5029071;28;20026;-65
2022/12/21 05:23:45;;;;;;;57.95;33.20;;;9.00;99.90;;;;;;5028548;28;20033;-65
2022/12/21 05:26:11;;;;;;;57.42;32.80;;;9.00;99.90;;;;;;5028103;28;20028;-65
2022/12/21 05:28:37;;;;;;;48.65;31.80;;;9.00;99.90;;;;;;5029659;28;20539;-65
2022/12/21 05:31:04;;;;;;;60.67;37.17;;;9.00;99.90;;;;;;5029207;28;20060;-65
2022/12/21 05:33:30;;;;;;;66.35;38.33;;;9.00;99.90;;;;;;5026204;28;20030;-65
2022/12/21 05:35:55;;;;;;;65.72;39.53;;;9.00;99.90;;;;;;5027024;28;20088;-65
2022/12/21 05:38:20;;;;;;;59.97;36.80;;;8.90;99.90;;;;;;5028948;28;20029;-65
2022/12/21 05:40:50;;;;;;;60.20;36.20;;;8.90;99.90;;;;;;5029139;28;20013;-65
2022/12/21 05:43:16;;;;;;;60.88;37.50;;;8.90;99.90;;;;;;5027860;28;20032;-65
2022/12/21 05:45:42;;;;;;;62.60;36.53;;;8.80;99.90;;;;;;5030286;28;20045;-65
2022/12/21 05:48:08;;;;;;;68.97;37.40;;;8.80;99.90;;;;;;5027991;28;20072;-65
2022/12/21 05:50:33;;;;;;;60.13;37.88;;;8.80;99.90;;;;;;5028764;28;20495;-65
2022/12/21 05:52:58;;;;;;;61.35;38.42;;;8.70;99.90;;;;;;5028055;28;20423;-65
2022/12/21 05:55:24;;;;;;;62.70;38.20;;;8.70;99.90;;;;;;5027375;28;20024;-65
2022/12/21 05:57:50;;;;;;;61.40;36.97;;;8.70;99.90;;;;;;5028292;28;20018;-65
2022/12/21 06:00:16;;;;;;;59.00;34.28;;;8.60;99.90;;;;;;5029429;28;20385;-65
2022/12/21 06:02:42;;;;;;;55.95;32.75;;;8.60;99.90;;;;;;5026930;28;20014;-65
2022/12/21 06:05:07;;;;;;;58.53;33.97;;;8.60;99.90;;;;;;5027720;28;20049;-65
2022/12/21 06:07:49;;;;;;;57.70;33.35;;;8.70;99.90;;;;;;5029542;28;20496;-65
2022/12/21 06:11:06;;;;;;;58.53;33.88;;;8.60;99.90;;;;;;5029341;28;20033;-65
2022/12/21 06:13:31;;;;;;;58.00;35.55;;;8.70;99.90;;;;;;5027908;28;20069;-65
2022/12/21 06:16:11;;;;;;;60.22;35.88;;;8.60;99.90;;;;;;5028820;28;20119;-65
2022/12/21 06:18:37;;;;;;;60.75;36.15;;;8.60;99.90;;;;;;5028692;28;20025;-65
2022/12/21 06:21:04;;;;;;;56.30;34.10;;;8.50;99.90;;;;;;5027067;28;20087;-65
2022/12/21 06:23:29;;;;;;;55.88;33.80;;;8.50;99.90;;;;;;5026961;28;20036;-65
2022/12/21 06:26:01;;;;;;;56.13;34.17;;;8.50;99.90;;;;;;5040869;28;20017;-65
2022/12/21 06:28:27;;;;;;;62.63;34.80;;;8.50;99.90;;;;;;5027402;28;20021;-65
2022/12/21 06:30:54;;;;;;;58.85;33.63;;;8.50;99.90;;;;;;5022926;28;20030;-65
2022/12/21 06:33:21;;;;;;;54.85;33.53;;;8.50;99.90;;;;;;5023908;28;20025;-65
2022/12/21 06:35:47;;;;;;;57.55;34.20;;;8.50;99.90;;;;;;5038397;28;20063;-65
2022/12/21 06:38:13;;;;;;;55.35;30.63;;;8.50;99.90;;;;;;5025739;28;20420;-65
2022/12/21 06:50:42;;;;;;;56.85;33.45;;;8.50;99.90;;;;;;5027917;28;20044;-65
2022/12/21 06:53:08;;;;;;;55.08;33.20;;;8.40;99.90;;;;;;5019089;28;20030;-65
2022/12/21 06:55:33;;;;;;;52.17;31.02;;;8.40;99.90;;;;;;5023615;28;20033;-65
2022/12/21 06:57:59;;;;;;;50.92;29.70;;;8.40;99.90;;;;;;5020852;28;20034;-65
2022/12/21 07:00:24;;;;;;;47.30;29.00;;;8.40;99.90;;;;;;5024901;28;20037;-65
2022/12/21 07:03:00;;;;;;;47.72;28.92;;;8.50;99.90;;;;;;5015610;28;20108;-66
2022/12/21 07:05:25;;;;;;;49.40;29.80;;;8.50;99.90;;;;;;5029767;28;20026;-65
2022/12/21 07:07:51;;;;;;;39.47;25.40;;;8.50;99.90;;;;;;5029514;28;20025;-65
2022/12/21 07:10:23;;;;;;;38.83;24.13;;;8.50;99.90;;;;;;5014773;28;20393;-65
2022/12/21 07:13:04;;;;;;;43.85;28.10;;;8.60;99.90;;;;;;5018538;28;20104;-65
2022/12/21 07:15:34;;;;;;;38.30;23.63;;;8.60;99.90;;;;;;5047344;28;20167;-65
2022/12/21 07:17:59;;;;;;;40.28;24.70;;;8.50;99.90;;;;;;5023651;28;20116;-65
2022/12/21 07:21:14;;;;;;;46.45;27.85;;;8.50;99.90;;;;;;5029850;28;20243;-65
2022/12/21 07:31:48;;;;;;;39.47;23.50;;;8.30;99.90;;;;;;4958889;28;20486;-65
2022/12/21 07:37:51;;;;;;;32.88;20.23;;;8.30;99.90;;;;;;4933605;29;20055;-65
2022/12/21 07:40:17;;;;;;;36.83;21.42;;;8.20;99.90;;;;;;4995540;28;20426;-65
2022/12/21 07:43:47;;;;;;;30.13;20.00;;;8.30;99.90;;;;;;5002089;28;20053;-65
2022/12/21 07:47:38;;;;;;;41.28;24.83;;;8.30;99.90;;;;;;5007416;28;20052;-65
2022/12/21 07:50:17;;;;;;;36.15;23.70;;;8.20;99.90;;;;;;4924389;29;20479;-65
2022/12/21 07:52:42;;;;;;;32.92;21.65;;;8.10;99.90;;;;;;4914912;29;20571;-65
2022/12/21 07:55:08;;;;;;;30.75;19.35;;;8.10;99.90;;;;;;4989057;28;20048;-65
2022/12/21 07:57:34;;;;;;;23.95;16.70;;;8.10;99.90;;;;;;5000821;28;20049;-65
2022/12/21 07:59:59;;;;;;;23.92;16.08;;;8.20;99.90;;;;;;5013178;28;20030;-65
2022/12/21 08:02:47;;;;;;;22.15;13.80;;;8.20;99.90;;;;;;5012745;28;20058;-65
2022/12/21 08:05:13;;;;;;;20.88;12.90;;;8.30;99.90;;;;;;5013596;28;20069;-66
2022/12/21 08:07:47;;;;;;;17.52;11.70;;;8.40;99.90;;;;;;5003358;28;20018;-65
2022/12/21 08:10:12;;;;;;;19.42;13.00;;;8.40;99.90;;;;;;5007063;28;20034;-66
2022/12/21 08:12:38;;;;;;;24.23;13.70;;;8.40;99.90;;;;;;5008437;28;20226;-65
2022/12/21 08:15:24;;;;;;;26.27;16.17;;;8.50;99.90;;;;;;4998375;28;20046;-65
2022/12/21 08:21:28;;;;;;;20.55;14.27;;;8.40;99.90;;;;;;4970808;28;20038;-66
2022/12/21 08:28:07;;;;;;;22.15;13.40;;;8.40;99.90;;;;;;4935674;28;20062;-65
2022/12/21 08:30:33;;;;;;;21.48;13.55;;;8.40;99.90;;;;;;4932255;28;20126;-65
2022/12/21 08:32:58;;;;;;;22.35;13.95;;;8.40;99.90;;;;;;4993586;28;20177;-65
2022/12/21 08:35:24;;;;;;;21.25;12.88;;;8.40;99.90;;;;;;4997497;28;20076;-65
2022/12/21 08:37:52;;;;;;;19.65;11.70;;;8.40;99.90;;;;;;5005752;28;20100;-65
2022/12/21 08:40:18;;;;;;;21.13;12.32;;;8.40;99.90;;;;;;5016607;28;20026;-65
2022/12/21 08:42:43;;;;;;;17.67;11.57;;;8.40;99.90;;;;;;5016568;28;20045;-65
2022/12/21 08:45:09;;;;;;;18.85;10.73;;;8.40;99.90;;;;;;5018647;28;20033;-65
2022/12/21 08:47:36;;;;;;;21.75;10.80;;;8.40;99.90;;;;;;5014980;28;21144;-65
2022/12/21 08:50:02;;;;;;;18.30;11.32;;;8.40;99.90;;;;;;5014307;28;20022;-65
2022/12/21 08:52:27;;;;;;;18.45;10.63;;;8.40;99.90;;;;;;5018451;28;20426;-65
2022/12/21 08:54:53;;;;;;;17.27;10.70;;;8.40;99.90;;;;;;5017364;28;20068;-65
2022/12/21 08:57:19;;;;;;;14.07;9.27;;;8.50;99.90;;;;;;5030356;28;20053;-65
2022/12/21 08:59:45;;;;;;;13.73;9.68;;;8.50;99.90;;;;;;5011067;28;20025;-65
2022/12/21 09:02:11;;;;;;;16.25;10.13;;;8.50;99.90;;;;;;5023661;28;20041;-65
2022/12/21 09:05:03;;;;;;;;;;;;;;;;;;;;;
2022/12/21 09:07:28;;;;;;;20.85;9.45;;;8.60;99.90;;;;;;5020333;28;20018;-65
2022/12/21 09:09:54;;;;;;;16.33;10.00;;;8.50;99.90;;;;;;5014136;28;20105;-65
2022/12/21 09:12:19;;;;;;;15.45;9.68;;;8.50;99.90;;;;;;5025884;28;20359;-65
2022/12/21 09:14:45;;;;;;;17.63;10.02;;;8.50;99.90;;;;;;5012066;28;20057;-65
2022/12/21 09:17:10;;;;;;;22.02;10.57;;;8.50;99.90;;;;;;5014473;28;20037;-65
2022/12/21 09:19:49;;;;;;;19.50;10.02;;;8.50;99.90;;;;;;5014390;28;20061;-65
2022/12/21 09:22:15;;;;;;;19.27;10.73;;;8.60;99.90;;;;;;5020330;28;20022;-65
2022/12/21 09:24:40;;;;;;;12.80;10.38;;;8.50;99.90;;;;;;5019284;28;20030;-65
2022/12/21 09:27:06;;;;;;;20.33;12.10;;;8.50;99.90;;;;;;5018569;28;20032;-65
2022/12/21 09:30:25;;;;;;;;;;;;;;;;;;;;;
2022/12/21 09:32:48;;;;;;;31.95;14.07;;;8.50;99.90;;;;;;5019261;28;20401;-65
2022/12/21 09:35:14;;;;;;;18.65;11.45;;;8.50;99.90;;;;;;5023888;28;20049;-65
2022/12/21 09:37:39;;;;;;;21.33;11.45;;;8.50;99.90;;;;;;5023430;28;20073;-65
2022/12/21 09:43:28;;;;;;;19.63;12.02;;;8.60;99.90;;;;;;5012896;28;20069;-65
2022/12/21 09:46:03;;;;;;;22.13;12.18;;;8.60;99.90;;;;;;5013607;28;20030;-65
2022/12/21 09:48:51;;;;;;;19.48;12.27;;;8.70;99.90;;;;;;5010800;28;20018;-65
2022/12/21 09:52:20;;;;;;;;;;;;;;;;;;;;;
2022/12/21 09:54:47;;;;;;;24.52;12.80;;;8.70;99.90;;;;;;5024429;28;20103;-65
2022/12/21 09:57:13;;;;;;;25.02;12.82;;;8.70;99.90;;;;;;5013538;28;20363;-65
2022/12/21 09:59:39;;;;;;;23.20;13.57;;;8.70;99.90;;;;;;5029693;28;20363;-65
2022/12/21 10:02:14;;;;;;;23.25;13.05;;;8.80;99.90;;;;;;5015050;28;20033;-65
2022/12/21 10:05:02;;;;;;;22.13;12.73;;;8.80;99.90;;;;;;5012038;28;20061;-65
2022/12/21 10:07:55;;;;;;;26.08;14.75;;;8.80;99.90;;;;;;5012943;28;20101;-65
2022/12/21 10:10:31;;;;;;;25.25;14.35;;;8.90;99.90;;;;;;5013077;28;20022;-65
2022/12/21 10:13:23;;;;;;;27.42;15.93;;;8.90;99.90;;;;;;5010321;28;20097;-66
2022/12/21 10:16:04;;;;;;;27.25;15.52;;;8.90;99.90;;;;;;5014760;28;20045;-66
2022/12/21 10:19:00;;;;;;;31.70;18.65;;;8.90;99.90;;;;;;5015167;28;20021;-65
2022/12/21 10:21:41;;;;;;;31.45;18.63;;;8.90;99.90;;;;;;5014406;28;20029;-65
2022/12/21 10:24:18;;;;;;;33.50;20.77;;;8.90;99.90;;;;;;5018361;28;20033;-65
2022/12/21 10:26:44;;;;;;;39.10;23.65;;;9.00;99.90;;;;;;5017334;28;20474;-65
2022/12/21 10:29:17;;;;;;;37.55;23.45;;;9.00;99.90;;;;;;5024804;28;20029;-65
2022/12/21 10:31:46;;;;;;;40.30;25.00;;;9.10;99.90;;;;;;5014691;28;20452;-65
2022/12/21 10:34:24;;;;;;;41.85;26.23;;;9.20;99.90;;;;;;5016097;28;20429;-65
2022/12/21 10:36:58;;;;;;;45.22;26.98;;;9.30;99.90;;;;;;5030228;28;20371;-65
2022/12/21 10:39:24;;;;;;;42.50;27.33;;;9.30;99.90;;;;;;5030890;28;20022;-66
2022/12/21 10:41:58;;;;;;;43.03;27.00;;;9.40;99.90;;;;;;5026019;28;20030;-65
2022/12/21 10:44:25;;;;;;;47.00;28.55;;;9.40;99.90;;;;;;5014172;28;20018;-65
2022/12/21 10:46:50;;;;;;;45.70;26.95;;;9.50;99.90;;;;;;5015996;28;20033;-65
2022/12/21 10:49:27;;;;;;;39.72;25.45;;;9.50;99.90;;;;;;5013706;28;20341;-65
2022/12/21 10:51:52;;;;;;;47.70;29.08;;;9.60;99.90;;;;;;5016181;28;20029;-66
2022/12/21 10:54:48;;;;;;;37.85;26.05;;;9.70;99.90;;;;;;5015420;28;20030;-66
2022/12/21 10:57:14;;;;;;;40.33;26.77;;;9.80;99.90;;;;;;5018588;28;20132;-65
2022/12/21 10:59:40;;;;;;;39.63;26.42;;;9.90;99.90;;;;;;5019412;28;20159;-65
2022/12/21 11:02:07;;;;;;;34.15;24.27;;;10.00;99.90;;;;;;5023282;28;20130;-65
2022/12/21 11:04:47;;;;;;;36.22;22.25;;;10.00;99.90;;;;;;5032384;28;20022;-65
2022/12/21 11:07:25;;;;;;;36.88;21.95;;;10.00;99.90;;;;;;5013491;28;20157;-65
2022/12/21 11:10:00;;;;;;;29.08;19.23;;;10.10;99.90;;;;;;5024865;28;20025;-65
2022/12/21 11:12:26;;;;;;;32.30;17.98;;;10.20;99.90;;;;;;5013383;28;20041;-65
2022/12/21 11:14:53;;;;;;;26.95;15.27;;;10.30;99.90;;;;;;5016067;28;20022;-65
2022/12/21 11:17:25;;;;;;;28.60;15.63;;;10.40;99.90;;;;;;5016799;28;20048;-66
2022/12/21 11:20:04;;;;;;;23.83;14.23;;;10.50;99.90;;;;;;5017753;28;20033;-65
2022/12/21 11:22:31;;;;;;;23.38;13.48;;;10.50;99.90;;;;;;5015580;28;20026;-65
2022/12/21 11:24:58;;;;;;;21.55;13.25;;;10.40;99.90;;;;;;5016488;28;20088;-65
2022/12/21 11:27:26;;;;;;;26.02;12.40;;;10.40;99.90;;;;;;5018136;28;20036;-65
2022/12/21 11:30:05;;;;;;;20.23;12.55;;;10.50;99.90;;;;;;5032933;28;20045;-65
2022/12/21 11:32:31;;;;;;;20.13;11.75;;;10.70;99.90;;;;;;5035718;28;20021;-65
2022/12/21 11:35:03;;;;;;;21.75;12.15;;;11.00;99.90;;;;;;5030410;28;20029;-65
2022/12/21 11:37:37;;;;;;;21.58;11.23;;;11.20;99.90;;;;;;5032332;28;20053;-65
2022/12/21 11:40:16;;;;;;;16.65;10.15;;;11.30;99.90;;;;;;5030085;28;20021;-65
2022/12/21 11:43:00;;;;;;;18.05;10.20;;;11.40;99.90;;;;;;5031678;28;20117;-65
2022/12/21 11:45:31;;;;;;;21.25;11.63;;;11.40;99.90;;;;;;5032999;28;20021;-65
2022/12/21 11:48:06;;;;;;;18.65;10.93;;;11.20;99.90;;;;;;5038713;28;20371;-65
2022/12/21 11:54:29;;;;;;;17.52;10.05;;;10.80;99.90;;;;;;5015689;28;20536;-65
2022/12/21 11:57:13;;;;;;;25.73;11.30;;;10.70;99.90;;;;;;5019038;28;20021;-65
2022/12/21 12:00:08;;;;;;;19.27;11.10;;;10.50;99.90;;;;;;5020930;28;20486;-65
2022/12/21 12:03:11;;;;;;;16.73;11.23;;;10.50;99.90;;;;;;5024223;28;20056;-65
2022/12/21 12:05:47;;;;;;;16.00;11.15;;;10.40;99.90;;;;;;5027136;28;20024;-65
2022/12/21 12:08:13;;;;;;;22.23;12.75;;;10.50;99.90;;;;;;5024906;28;20049;-65
2022/12/21 12:11:03;;;;;;;21.13;12.85;;;10.40;99.90;;;;;;5017749;28;20056;-65
2022/12/21 12:13:34;;;;;;;;;;;10.50;99.90;;;;;;5028746;28;20026;-66
2022/12/21 12:16:03;;;;;;;21.70;12.77;;;10.40;99.90;;;;;;5021690;28;19984;-65
2022/12/21 12:18:59;;;;;;;17.90;12.63;;;10.40;99.90;;;;;;5011356;28;20029;-65
2022/12/21 12:22:04;;;;;;;20.92;12.63;;;10.40;99.90;;;;;;5019838;28;20052;-65
2022/12/21 12:24:48;;;;;;;19.65;12.68;;;10.30;99.90;;;;;;5013732;28;20095;-65
2022/12/21 12:27:22;;;;;;;17.27;12.05;;;10.30;99.90;;;;;;5024413;28;20030;-65
2022/12/21 12:30:06;;;;;;;20.73;11.60;;;10.40;99.90;;;;;;5044853;28;20014;-66
2022/12/21 12:36:05;;;;;;;18.85;11.80;;;10.50;99.90;;;;;;5006873;28;20029;-66
2022/12/21 12:38:56;;;;;;;24.00;12.63;;;10.30;99.90;;;;;;5015240;28;20524;-65
2022/12/21 12:42:01;;;;;;;24.13;11.73;;;10.30;99.90;;;;;;5006895;28;20034;-65
2022/12/21 12:44:32;;;;;;;19.80;12.48;;;10.20;99.90;;;;;;5012392;28;20089;-65
2022/12/21 12:47:24;;;;;;;18.63;12.13;;;10.20;99.90;;;;;;5026104;28;20094;-65
2022/12/21 12:50:06;;;;;;;18.35;11.52;;;10.20;99.90;;;;;;5036881;28;20482;-65
2022/12/21 12:52:50;;;;;;;20.35;12.48;;;10.20;99.90;;;;;;5030822;28;20133;-65
2022/12/21 12:55:24;;;;;;;19.88;12.85;;;10.20;99.90;;;;;;5026881;28;20104;-65
2022/12/21 12:57:53;;;;;;;18.65;12.05;;;10.20;99.90;;;;;;5027858;28;20033;-65
2022/12/21 13:01:00;;;;;;;21.20;13.20;;;10.10;99.90;;;;;;5024289;28;20058;-65
2022/12/21 13:03:55;;;;;;;23.60;12.88;;;10.10;99.90;;;;;;5019480;28;20041;-65
2022/12/21 13:06:58;;;;;;;21.73;12.40;;;10.00;99.90;;;;;;5027508;28;20028;-65
2022/12/21 13:09:24;;;;;;;17.23;12.43;;;10.00;99.90;;;;;;5012338;28;20029;-65
2022/12/21 13:12:14;;;;;;;21.50;12.05;;;9.90;99.90;;;;;;5012362;28;20491;-65
2022/12/21 13:15:02;;;;;;;19.48;13.00;;;10.00;99.90;;;;;;5012581;28;20827;-65
2022/12/21 13:17:41;;;;;;;21.25;12.48;;;10.00;99.90;;;;;;5029090;28;20072;-65
2022/12/21 13:20:14;;;;;;;21.17;13.87;;;10.00;99.90;;;;;;5031370;28;20516;-65
2022/12/21 13:22:40;;;;;;;19.83;12.90;;;10.00;99.90;;;;;;5046321;28;20804;-65
2022/12/21 13:25:30;;;;;;;20.73;11.82;;;9.90;99.90;;;;;;5046144;28;20551;-65
2022/12/21 13:27:57;;;;;;;19.92;11.82;;;10.00;99.90;;;;;;5021805;28;20021;-65
2022/12/21 13:30:23;;;;;;;22.45;11.98;;;9.90;99.90;;;;;;5030382;28;20053;-65
2022/12/21 13:32:59;;;;;;;18.75;12.23;;;9.90;99.90;;;;;;5031882;28;20053;-65
2022/12/21 13:35:33;;;;;;;24.20;11.43;;;9.90;99.90;;;;;;5030599;28;20033;-65
2022/12/21 13:38:20;;;;;;;21.50;12.18;;;9.90;99.90;;;;;;5030879;28;20052;-65
2022/12/21 13:40:52;;;;;;;17.35;11.18;;;9.90;99.90;;;;;;5021292;28;20033;-65
2022/12/21 13:43:24;;;;;;;20.88;11.40;;;9.90;99.90;;;;;;5031066;28;20045;-65
2022/12/21 13:46:06;;;;;;;17.90;12.07;;;9.80;99.90;;;;;;5034951;28;20076;-65
2022/12/21 13:49:16;;;;;;;;;;;;;;;;;;;;;
2022/12/21 13:51:53;;;;;;;19.40;11.77;;;9.80;99.90;;;;;;5024498;28;20022;-65
2022/12/21 13:54:31;;;;;;;19.35;12.57;;;9.80;99.90;;;;;;5016971;28;20485;-65
2022/12/21 13:57:23;;;;;;;23.20;11.45;;;9.80;99.90;;;;;;5014915;28;20494;-65
2022/12/21 14:00:15;;;;;;;14.85;10.07;;;9.80;99.90;;;;;;5014951;28;20026;-65
2022/12/21 14:03:15;;;;;;;16.55;10.07;;;9.80;99.90;;;;;;5018002;28;20068;-65
2022/12/21 14:06:18;;;;;;;20.38;10.00;;;9.70;99.90;;;;;;5014869;28;20033;-65
2022/12/21 14:09:14;;;;;;;15.20;10.38;;;9.70;99.90;;;;;;5015008;28;20053;-65
2022/12/21 14:12:14;;;;;;;;;;;;;;;;;;;;;